Time;durP1;ratioP1;P1;durP2;ratioP2;P2;SDS_P1;SDS_P2;PMS_P1;PMS_P2;Temp;Humidity;BMP_temperature;BMP_pressure;BME280_temperature;BME280_humidity;BME280_pressure;Samples;Min_cycle;Max_cycle;Signal;HPM_P1;HPM_P2
2021/03/10 00:00:30;;;;;;;48.77;29.40;;;;;;;0.23;85.70;96823.13;4949917;28;20369;-74
2021/03/10 00:02:56;;;;;;;53.70;30.33;;;;;;;0.51;85.56;96818.75;4950029;28;20294;-74
2021/03/10 00:05:22;;;;;;;52.08;30.58;;;;;;;0.51;84.77;96822.16;4949861;28;20058;-73
2021/03/10 00:07:48;;;;;;;49.40;29.33;;;;;;;0.48;85.72;96821.53;4951998;28;20391;-74
2021/03/10 00:10:15;;;;;;;57.50;31.30;;;;;;;0.41;85.62;96823.69;4944782;28;20059;-74
2021/03/10 00:12:42;;;;;;;52.67;30.07;;;;;;;0.50;85.36;96832.50;4941873;28;20045;-73
2021/03/10 00:15:11;;;;;;;48.30;29.08;;;;;;;0.39;85.55;96825.53;4958571;28;20051;-73
2021/03/10 00:17:39;;;;;;;53.38;29.50;;;;;;;0.34;85.65;96837.78;4955507;28;20044;-73
2021/03/10 00:20:06;;;;;;;;;;;;;;;0.47;85.31;96835.28;4954759;28;20066;-73
2021/03/10 00:22:32;;;;;;;53.58;29.95;;;;;;;0.47;84.79;96841.22;4958058;28;19945;-73
2021/03/10 00:25:00;;;;;;;57.00;32.42;;;;;;;0.38;85.86;96836.66;4943694;28;20059;-73
2021/03/10 00:27:27;;;;;;;55.38;30.83;;;;;;;0.55;85.08;96840.69;4955124;28;20074;-73
2021/03/10 00:29:56;;;;;;;50.72;30.63;;;;;;;0.60;85.26;96844.59;4942928;28;20047;-73
2021/03/10 00:32:25;;;;;;;54.95;32.05;;;;;;;0.55;85.20;96851.78;4940123;28;20062;-73
2021/03/10 00:34:52;;;;;;;52.65;29.60;;;;;;;0.58;85.56;96843.06;4952302;28;20074;-73
2021/03/10 00:37:19;;;;;;;52.75;31.20;;;;;;;0.75;84.55;96849.59;4955016;28;20042;-73
2021/03/10 00:39:47;;;;;;;62.00;33.45;;;;;;;0.36;85.48;96847.03;4957838;28;20047;-73
2021/03/10 00:42:15;;;;;;;51.72;30.20;;;;;;;0.47;85.70;96830.97;4942417;28;20039;-73
2021/03/10 00:44:41;;;;;;;64.17;35.27;;;;;;;0.21;86.55;96842.91;4956118;28;20047;-73
2021/03/10 00:47:08;;;;;;;52.72;30.73;;;;;;;0.38;86.23;96844.34;4953223;28;20301;-73
2021/03/10 00:49:37;;;;;;;54.95;31.02;;;;;;;0.43;86.40;96842.31;4954074;28;20652;-74
2021/03/10 00:52:03;;;;;;;54.08;30.70;;;;;;;0.52;85.55;96839.16;4941716;28;20380;-73
2021/03/10 00:54:29;;;;;;;66.10;34.95;;;;;;;0.40;85.53;96828.00;4956764;28;20043;-73
2021/03/10 00:56:55;;;;;;;54.20;30.85;;;;;;;0.61;85.24;96827.47;4952656;28;20050;-74
2021/03/10 00:59:21;;;;;;;55.03;31.85;;;;;;;0.18;86.17;96808.09;4958172;28;20058;-73
2021/03/10 01:01:48;;;;;;;63.25;35.80;;;;;;;0.43;85.96;96834.66;4959444;28;20700;-74
2021/03/10 01:04:14;;;;;;;53.03;31.55;;;;;;;0.49;85.64;96836.00;4956410;28;20404;-74
2021/03/10 01:06:40;;;;;;;51.22;29.70;;;;;;;0.48;85.42;96827.47;4954722;28;20126;-74
2021/03/10 01:09:07;;;;;;;49.72;29.73;;;;;;;0.64;85.43;96823.91;4935963;28;20049;-73
2021/03/10 01:11:34;;;;;;;49.25;29.33;;;;;;;0.68;84.76;96828.72;4924652;28;20133;-73
2021/03/10 01:14:01;;;;;;;48.83;29.08;;;;;;;0.24;86.27;96831.66;4957511;28;20069;-74
2021/03/10 01:16:28;;;;;;;62.77;35.37;;;;;;;0.27;86.22;96822.00;4927405;28;20047;-73
2021/03/10 01:18:55;;;;;;;55.95;31.75;;;;;;;0.42;85.65;96812.50;4953282;28;20285;-74
2021/03/10 01:21:21;;;;;;;57.70;33.35;;;;;;;0.31;86.69;96812.41;4958238;28;20170;-73
2021/03/10 01:23:47;;;;;;;54.05;32.00;;;;;;;0.38;85.85;96808.50;4937449;28;20544;-74
2021/03/10 01:26:13;;;;;;;46.58;29.00;;;;;;;0.49;86.33;96818.88;4937271;28;20102;-74
2021/03/10 01:28:40;;;;;;;52.53;29.13;;;;;;;0.06;86.67;96819.13;4953487;28;20050;-74
2021/03/10 01:31:06;;;;;;;46.67;30.42;;;;;;;0.24;86.87;96798.38;4953041;28;20086;-73
2021/03/10 01:33:32;;;;;;;54.42;31.67;;;;;;;0.22;86.55;96815.59;4938926;28;20110;-73
2021/03/10 01:36:09;;;;;;;49.08;30.15;;;;;;;0.39;86.19;96807.59;4935753;28;20046;-73
2021/03/10 01:38:35;;;;;;;48.60;29.80;;;;;;;0.49;85.60;96811.19;4933609;28;20043;-74
2021/03/10 01:41:01;;;;;;;57.05;33.28;;;;;;;0.42;86.50;96809.13;4950539;28;20043;-74
2021/03/10 01:43:29;;;;;;;54.10;32.40;;;;;;;0.16;86.54;96807.38;4937507;28;20411;-74
2021/03/10 01:45:55;;;;;;;79.55;38.80;;;;;;;0.39;86.48;96808.41;4950836;28;20034;-74
2021/03/10 01:48:22;;;;;;;55.40;31.73;;;;;;;0.03;86.82;96819.34;4948849;28;20492;-73
2021/03/10 01:50:49;;;;;;;69.38;36.67;;;;;;;-0.18;87.71;96810.47;4957307;28;20598;-73
2021/03/10 01:53:15;;;;;;;79.20;37.53;;;;;;;-0.22;87.92;96810.66;4949966;28;20034;-73
2021/03/10 01:55:45;;;;;;;78.73;38.57;;;;;;;0.14;87.15;96801.53;4952492;28;20047;-73
2021/03/10 01:58:12;;;;;;;65.80;35.65;;;;;;;0.05;87.15;96811.56;4933745;28;20503;-74
2021/03/10 02:00:39;;;;;;;56.67;33.22;;;;;;;0.16;87.30;96804.81;4950197;28;20492;-74
2021/03/10 02:03:07;;;;;;;67.13;35.53;;;;;;;0.07;87.22;96796.91;4935885;28;20122;-73
2021/03/10 02:05:34;;;;;;;47.17;30.65;;;;;;;0.19;87.15;96794.38;4952025;28;20054;-74
2021/03/10 02:08:24;;;;;;;73.03;35.72;;;;;;;0.40;85.79;96798.97;4936712;28;20504;-73
2021/03/10 02:10:50;;;;;;;57.97;33.65;;;;;;;0.34;86.43;96787.41;4954186;28;20047;-74
2021/03/10 02:13:35;;;;;;;64.45;34.78;;;;;;;0.34;86.09;96786.56;4955103;28;20043;-73
2021/03/10 02:16:26;;;;;;;60.17;35.58;;;;;;;0.41;85.70;96787.81;4951258;28;21343;-74
2021/03/10 02:19:02;;;;;;;61.10;34.60;;;;;;;0.34;85.85;96784.00;4953334;28;20027;-74
2021/03/10 02:21:56;;;;;;;80.13;40.78;;;;;;;0.31;86.79;96779.94;4955521;28;20407;-73
2021/03/10 02:24:38;;;;;;;54.05;33.13;;;;;;;0.32;85.87;96781.56;4954629;28;20137;-73
2021/03/10 02:27:34;;;;;;;57.25;33.40;;;;;;;0.30;85.93;96780.06;4954498;28;20188;-73
2021/03/10 02:30:13;;;;;;;68.47;37.53;;;;;;;0.22;86.71;96798.47;4937152;28;20885;-73
2021/03/10 02:32:46;;;;;;;57.58;35.38;;;;;;;0.34;86.88;96794.25;4953483;28;20049;-73
2021/03/10 02:35:14;;;;;;;81.70;41.72;;;;;;;0.35;86.37;96783.91;4956261;28;20097;-74
2021/03/10 02:37:45;;;;;;;56.53;34.28;;;;;;;0.32;86.57;96786.69;4939392;28;20082;-74
2021/03/10 02:40:15;;;;;;;64.68;37.17;;;;;;;0.39;86.07;96794.78;4954299;28;20046;-73
2021/03/10 02:42:42;;;;;;;67.55;38.47;;;;;;;0.20;86.25;96796.00;4951944;28;20122;-73
2021/03/10 02:45:09;;;;;;;62.30;36.70;;;;;;;0.05;87.34;96778.28;4951090;28;20043;-74
2021/03/10 02:47:37;;;;;;;56.20;34.75;;;;;;;0.48;86.25;96785.66;4952576;28;20138;-74
2021/03/10 02:50:06;;;;;;;78.63;41.03;;;;;;;0.53;86.31;96788.72;4954915;28;20097;-73
2021/03/10 02:52:34;;;;;;;75.15;40.28;;;;;;;0.44;86.12;96785.03;4953489;28;20053;-73
2021/03/10 02:55:01;;;;;;;63.30;36.20;;;;;;;0.42;86.31;96788.63;4953051;28;20061;-73
2021/03/10 02:57:29;;;;;;;74.15;39.85;;;;;;;0.41;86.25;96782.69;4952609;28;20484;-73
2021/03/10 02:59:56;;;;;;;66.75;37.92;;;;;;;0.20;86.88;96772.97;4934161;28;20059;-73
2021/03/10 03:02:22;;;;;;;68.20;39.28;;;;;;;0.24;86.81;96775.34;4957153;28;20091;-74
2021/03/10 03:04:48;;;;;;;99.13;45.70;;;;;;;0.19;87.16;96768.78;4934953;28;20529;-74
2021/03/10 03:07:17;;;;;;;74.03;41.20;;;;;;;0.18;86.39;96776.56;4949698;28;20127;-74
2021/03/10 03:09:44;;;;;;;75.13;41.40;;;;;;;0.12;87.22;96766.72;4952693;28;20035;-74
2021/03/10 03:12:12;;;;;;;64.47;37.22;;;;;;;0.11;87.24;96777.88;4937002;28;20058;-73
2021/03/10 03:14:39;;;;;;;62.97;35.97;;;;;;;0.27;86.93;96770.81;4950066;28;20039;-73
2021/03/10 03:17:07;;;;;;;;;;;;;;;0.31;86.15;96779.94;4952001;28;20039;-73
2021/03/10 03:19:34;;;;;;;72.30;40.47;;;;;;;0.20;87.25;96775.53;4951743;28;19923;-73
2021/03/10 03:22:01;;;;;;;72.57;39.95;;;;;;;0.09;87.62;96770.31;4955067;28;20050;-73
2021/03/10 03:24:29;;;;;;;77.45;41.30;;;;;;;0.13;87.97;96778.59;4953027;28;20043;-74
2021/03/10 03:26:56;;;;;;;91.30;47.67;;;;;;;-0.07;87.75;96778.16;4938969;28;20430;-73
2021/03/10 03:29:25;;;;;;;87.43;44.65;;;;;;;-0.09;88.72;96786.84;4951995;28;21511;-73
2021/03/10 03:31:54;;;;;;;71.55;40.13;;;;;;;0.08;88.05;96780.63;4937069;28;20046;-73
2021/03/10 03:34:21;;;;;;;96.20;47.85;;;;;;;-0.11;88.01;96774.16;4937366;28;20043;-73
2021/03/10 03:36:47;;;;;;;77.38;42.42;;;;;;;-0.05;88.23;96775.50;4947261;28;20040;-73
2021/03/10 03:39:15;;;;;;;75.50;42.22;;;;;;;-0.11;88.51;96791.25;4952907;28;20077;-73
2021/03/10 03:41:42;;;;;;;125.88;55.10;;;;;;;0.11;89.18;96781.25;4956703;28;20695;-73
2021/03/10 03:44:08;;;;;;;78.20;42.83;;;;;;;0.03;88.01;96787.81;4953876;28;20045;-73
2021/03/10 03:46:35;;;;;;;68.30;39.17;;;;;;;0.13;87.57;96789.66;4932853;28;20377;-73
2021/03/10 03:49:02;;;;;;;66.57;39.47;;;;;;;0.18;87.75;96787.59;4958579;28;20038;-74
2021/03/10 03:51:30;;;;;;;101.88;47.05;;;;;;;0.25;87.72;96788.00;4940824;28;20528;-73
2021/03/10 03:54:02;;;;;;;91.72;44.20;;;;;;;0.15;88.07;96792.94;4953096;28;20071;-74
2021/03/10 03:56:28;;;;;;;76.85;42.58;;;;;;;0.27;88.05;96790.47;4958179;28;20178;-73
2021/03/10 03:58:55;;;;;;;85.00;45.60;;;;;;;0.30;87.87;96774.94;4939944;28;20050;-73
2021/03/10 04:01:21;;;;;;;66.00;39.85;;;;;;;0.43;87.02;96790.28;4954638;28;20121;-73
2021/03/10 04:03:48;;;;;;;67.00;38.65;;;;;;;0.46;87.20;96790.06;4957591;28;20055;-73
2021/03/10 04:06:15;;;;;;;60.53;36.70;;;;;;;0.59;86.27;96791.72;4957232;28;20622;-73
2021/03/10 04:08:42;;;;;;;68.03;39.13;;;;;;;0.44;86.66;96797.84;4955247;28;20051;-74
2021/03/10 04:11:10;;;;;;;61.45;37.40;;;;;;;0.38;87.31;96791.41;4954313;28;21574;-74
2021/03/10 04:13:37;;;;;;;90.57;47.90;;;;;;;0.27;87.56;96788.72;4936387;28;20054;-73
2021/03/10 04:16:04;;;;;;;66.45;39.60;;;;;;;0.35;86.99;96796.72;4938103;28;20059;-74
2021/03/10 04:18:31;;;;;;;77.28;43.35;;;;;;;0.45;86.62;96799.50;4955477;28;20039;-74
2021/03/10 04:20:58;;;;;;;63.38;39.33;;;;;;;0.45;86.59;96802.06;4960699;28;20843;-74
2021/03/10 04:23:24;;;;;;;74.13;42.13;;;;;;;0.24;87.85;96804.31;4956219;28;20051;-74
2021/03/10 04:25:50;;;;;;;63.40;39.15;;;;;;;0.44;87.17;96802.97;4950303;28;20053;-74
2021/03/10 04:28:16;;;;;;;73.93;39.55;;;;;;;0.23;86.48;96804.41;4940277;28;20499;-73
2021/03/10 04:30:42;;;;;;;74.82;40.45;;;;;;;0.56;85.82;96799.59;4951977;28;20055;-73
2021/03/10 04:33:08;;;;;;;78.53;44.83;;;;;;;0.54;85.98;96793.75;4938102;28;20934;-73
2021/03/10 04:35:35;;;;;;;69.90;39.90;;;;;;;0.34;86.18;96801.94;4955423;28;20053;-73
2021/03/10 04:38:01;;;;;;;88.70;45.33;;;;;;;0.28;86.46;96797.25;4953948;28;20055;-73
2021/03/10 04:40:27;;;;;;;107.15;51.67;;;;;;;0.28;86.95;96798.06;4955325;28;20038;-73
2021/03/10 04:42:54;;;;;;;106.68;51.60;;;;;;;0.25;87.02;96807.69;4937117;28;20691;-74
2021/03/10 04:45:20;;;;;;;78.82;42.10;;;;;;;0.26;87.11;96812.72;4952454;28;20407;-73
2021/03/10 04:47:47;;;;;;;73.82;41.95;;;;;;;0.39;86.53;96799.91;4958325;28;20054;-72
2021/03/10 04:50:14;;;;;;;75.13;41.63;;;;;;;0.54;86.41;96809.13;4954401;28;20051;-73
2021/03/10 04:52:40;;;;;;;;;;;;;;;0.36;86.49;96816.31;4953718;28;20059;-73
2021/03/10 04:55:08;;;;;;;86.72;44.40;;;;;;;0.47;86.14;96805.34;4954303;28;19927;-73
2021/03/10 04:57:35;;;;;;;90.35;46.10;;;;;;;0.67;84.76;96810.88;4957964;28;20039;-73
2021/03/10 05:00:07;;;;;;;85.20;44.90;;;;;;;0.25;86.91;96803.38;4954948;28;20055;-73
2021/03/10 05:02:35;;;;;;;75.70;42.47;;;;;;;0.39;86.62;96790.47;4955063;28;20039;-73
2021/03/10 05:05:02;;;;;;;;;;;;;;;0.34;86.88;96807.06;4954626;28;20559;-73
2021/03/10 05:07:28;;;;;;;73.20;42.45;;;;;;;0.36;86.98;96813.75;4937963;28;19930;-73
2021/03/10 05:09:54;;;;;;;80.78;44.67;;;;;;;0.32;86.94;96809.75;4936569;28;20077;-73
2021/03/10 05:12:21;;;;;;;85.22;44.70;;;;;;;0.36;86.60;96806.06;4959160;28;20102;-73
2021/03/10 05:14:47;;;;;;;80.95;45.00;;;;;;;0.60;85.94;96808.72;4952314;28;20043;-73
2021/03/10 05:17:13;;;;;;;68.55;41.03;;;;;;;0.47;86.54;96802.78;4953857;28;20530;-73
2021/03/10 05:19:39;;;;;;;90.85;49.05;;;;;;;0.32;87.01;96807.19;4953660;28;20133;-73
2021/03/10 05:22:05;;;;;;;89.40;47.97;;;;;;;0.39;87.09;96802.47;4954491;28;20050;-73
2021/03/10 05:24:31;;;;;;;94.95;49.15;;;;;;;0.42;87.95;96814.25;4953781;28;20053;-75
2021/03/10 05:26:57;;;;;;;89.18;46.53;;;;;;;0.26;87.53;96817.03;4951523;28;20468;-73
2021/03/10 05:29:24;;;;;;;68.80;42.38;;;;;;;0.46;86.99;96811.38;4938667;28;20054;-73
2021/03/10 05:31:50;;;;;;;120.45;58.20;;;;;;;0.46;86.57;96811.38;4955162;28;20051;-73
2021/03/10 05:34:16;;;;;;;160.63;78.13;;;;;;;0.41;87.81;96823.69;4938131;28;20043;-72
2021/03/10 05:36:42;;;;;;;90.85;50.47;;;;;;;0.56;87.24;96826.97;4950293;28;20047;-71
2021/03/10 05:39:14;;;;;;;75.75;44.40;;;;;;;0.76;85.92;96823.88;4936862;28;20488;-72
2021/03/10 05:41:41;;;;;;;;;;;;;;;0.50;87.35;96830.75;4939495;28;20042;-71
2021/03/10 05:44:08;;;;;;;74.93;43.75;;;;;;;0.56;86.40;96830.34;4950580;28;19949;-72
2021/03/10 05:46:35;;;;;;;103.70;52.15;;;;;;;0.80;86.35;96837.28;4955625;28;20514;-73
2021/03/10 05:49:01;;;;;;;74.80;45.33;;;;;;;0.89;86.04;96836.69;4917523;28;20052;-72
2021/03/10 05:51:27;;;;;;;91.07;52.05;;;;;;;0.66;85.80;96822.06;4936942;28;20301;-73
2021/03/10 05:53:57;;;;;;;119.60;60.15;;;;;;;0.74;86.58;96830.84;4951656;28;20043;-72
2021/03/10 05:56:25;;;;;;;119.97;56.63;;;;;;;0.94;85.51;96839.75;4952993;28;20150;-73
2021/03/10 05:58:59;;;;;;;147.90;67.95;;;;;;;0.92;85.68;96844.16;4956712;28;20047;-72
2021/03/10 06:01:25;;;;;;;121.57;58.88;;;;;;;0.90;85.71;96834.94;4958201;28;20059;-71
2021/03/10 06:03:58;;;;;;;101.90;53.72;;;;;;;0.86;85.25;96824.06;4935640;28;20817;-70
2021/03/10 06:06:25;;;;;;;90.60;47.17;;;;;;;1.00;85.19;96831.63;4936992;28;20510;-70
2021/03/10 06:08:52;;;;;;;130.45;61.90;;;;;;;1.04;85.72;96831.41;4950740;28;20138;-69
2021/03/10 06:11:25;;;;;;;90.22;51.20;;;;;;;1.16;84.52;96826.25;4950612;28;20499;-71
2021/03/10 06:13:53;;;;;;;81.90;45.47;;;;;;;1.27;83.91;96833.22;4953895;28;20061;-70
2021/03/10 06:16:24;;;;;;;;;;;;;;;1.27;85.13;96840.09;4952114;28;20047;-70
2021/03/10 06:19:01;;;;;;;195.65;84.97;;;;;;;1.31;84.47;96839.78;4951876;28;19977;-70
2021/03/10 06:21:28;;;;;;;114.15;57.53;;;;;;;1.34;84.15;96842.13;4945687;28;20047;-71
2021/03/10 06:24:00;;;;;;;165.98;79.43;;;;;;;1.58;83.44;96849.03;4933440;28;20403;-76
2021/03/10 06:26:30;;;;;;;192.25;87.05;;;;;;;1.72;82.95;96848.88;4952511;28;20054;-72
2021/03/10 06:28:59;;;;;;;297.50;113.47;;;;;;;1.52;83.98;96852.84;4937211;28;20090;-72
2021/03/10 06:31:27;;;;;;;139.27;79.53;;;;;;;1.61;83.20;96854.78;4955947;28;20095;-71
2021/03/10 06:34:16;;;;;;;82.70;51.65;;;;;;;1.59;83.15;96860.94;4956598;28;20063;-69
2021/03/10 06:36:42;;;;;;;;;;;;;;;1.59;83.37;96863.50;4939148;28;20051;-73
2021/03/10 06:39:13;;;;;;;74.55;43.92;;;;;;;1.48;83.88;96863.44;4953971;28;19930;-67
2021/03/10 06:41:41;;;;;;;78.72;47.65;;;;;;;1.75;83.43;96864.03;4939833;28;20047;-72
2021/03/10 06:44:17;;;;;;;103.50;53.75;;;;;;;1.57;83.81;96860.22;4923625;28;20051;-70
2021/03/10 06:47:02;;;;;;;76.72;48.60;;;;;;;1.82;83.52;96859.28;4956312;28;20045;-70
2021/03/10 06:49:34;;;;;;;73.40;46.28;;;;;;;1.88;82.69;96866.56;4952020;28;20053;-70
2021/03/10 06:52:08;;;;;;;84.30;51.63;;;;;;;1.79;83.26;96852.63;4937163;28;20110;-71
2021/03/10 06:54:35;;;;;;;74.18;45.53;;;;;;;1.75;82.79;96858.09;4954404;28;20050;-69
2021/03/10 06:57:07;;;;;;;107.20;61.83;;;;;;;1.78;83.47;96870.72;4951897;28;20062;-70
2021/03/10 06:59:50;;;;;;;69.88;43.20;;;;;;;1.94;81.68;96878.97;4938626;28;20051;-70
2021/03/10 07:02:30;;;;;;;69.05;45.00;;;;;;;1.85;82.38;96876.25;4952798;28;20073;-69
2021/03/10 07:05:01;;;;;;;87.50;54.70;;;;;;;1.88;82.66;96879.38;4950247;28;22778;-69
2021/03/10 07:07:29;;;;;;;69.00;46.42;;;;;;;2.21;81.60;96881.28;4939089;28;20058;-75
2021/03/10 07:09:57;;;;;;;80.60;49.40;;;;;;;2.41;80.91;96876.44;4948354;28;20531;-69
2021/03/10 07:12:27;;;;;;;74.25;47.47;;;;;;;2.32;81.56;96895.09;4949786;28;20828;-73
2021/03/10 07:14:53;;;;;;;67.43;45.40;;;;;;;2.72;80.82;96892.19;4933128;28;20054;-73
2021/03/10 07:17:23;;;;;;;87.30;52.40;;;;;;;2.56;80.61;96901.03;4932043;28;20040;-73
2021/03/10 07:19:49;;;;;;;74.25;45.83;;;;;;;2.90;80.00;96895.13;4942502;28;20051;-72
2021/03/10 07:22:21;;;;;;;70.55;47.10;;;;;;;2.85;79.86;96901.41;4955671;28;20748;-73
2021/03/10 07:24:52;;;;;;;84.70;50.30;;;;;;;3.00;79.59;96891.72;4951607;28;20062;-72
2021/03/10 07:27:20;;;;;;;75.65;47.45;;;;;;;2.90;79.48;96903.66;4953564;28;20047;-72
2021/03/10 07:29:46;;;;;;;;;;;;;;;2.97;81.51;96920.25;4956213;28;20138;-73
2021/03/10 07:32:21;;;;;;;74.30;46.85;;;;;;;2.86;80.16;96917.69;4971307;23;19922;-76
2021/03/10 07:34:59;;;;;;;65.10;43.63;;;;;;;3.15;79.65;96912.09;4995387;28;20050;-77
2021/03/10 07:37:27;;;;;;;58.83;38.40;;;;;;;2.90;79.58;96918.25;5006470;28;20049;-75
2021/03/10 07:40:08;;;;;;;79.10;47.15;;;;;;;2.77;82.11;96924.34;5003553;28;20050;-75
2021/03/10 07:42:35;;;;;;;55.95;37.92;;;;;;;3.00;79.64;96924.34;4995474;28;20057;-75
2021/03/10 07:45:06;;;;;;;58.88;38.50;;;;;;;2.71;81.03;96927.34;5004236;28;20050;-75
2021/03/10 07:47:32;;;;;;;62.83;42.53;;;;;;;2.65;80.11;96923.47;4988798;28;20066;-75
2021/03/10 07:50:01;;;;;;;48.45;32.70;;;;;;;3.00;79.50;96925.16;5009525;28;20045;-75
2021/03/10 07:52:28;;;;;;;58.67;36.22;;;;;;;2.71;81.13;96931.66;5010641;28;20069;-75
2021/03/10 07:54:59;;;;;;;50.67;35.08;;;;;;;2.57;81.30;96943.78;4990352;28;20725;-76
2021/03/10 07:57:26;;;;;;;62.08;41.60;;;;;;;2.56;81.44;96941.31;4989691;28;20062;-75
2021/03/10 07:59:54;;;;;;;69.10;42.65;;;;;;;2.80;81.10;96943.84;5005269;28;20041;-75
2021/03/10 08:02:20;;;;;;;61.35;39.60;;;;;;;2.92;79.67;96945.53;5008020;28;20050;-75
2021/03/10 08:05:01;;;;;;;53.83;36.58;;;;;;;3.25;78.29;96944.72;4989182;28;20654;-75
2021/03/10 08:07:31;;;;;;;66.38;42.63;;;;;;;3.38;79.07;96952.31;5005833;28;20073;-74
2021/03/10 08:09:57;;;;;;;61.95;41.20;;;;;;;3.42;78.63;96950.34;5008597;28;20046;-76
2021/03/10 08:12:39;;;;;;;55.28;37.22;;;;;;;4.13;76.57;96958.56;5007100;28;20046;-74
2021/03/10 08:15:07;;;;;;;60.08;37.10;;;;;;;4.18;74.87;96951.28;5008391;28;20132;-75
2021/03/10 08:17:34;;;;;;;78.22;46.78;;;;;;;4.50;74.39;96945.31;5006938;28;20049;-75
2021/03/10 08:20:04;;;;;;;65.32;39.17;;;;;;;5.08;73.31;96953.47;4995489;28;20042;-75
2021/03/10 08:22:31;;;;;;;71.13;42.75;;;;;;;4.83;73.76;96949.50;5009005;28;20050;-74
2021/03/10 08:25:00;;;;;;;67.18;42.33;;;;;;;4.84;73.75;96945.97;5005364;28;20048;-73
2021/03/10 08:27:34;;;;;;;60.40;40.28;;;;;;;5.85;71.73;96943.59;4990695;28;20077;-74
2021/03/10 08:30:04;;;;;;;59.80;40.08;;;;;;;6.04;68.42;96943.66;5003443;28;20117;-75
2021/03/10 08:32:32;;;;;;;49.13;33.33;;;;;;;4.81;72.38;96942.84;4986890;28;20093;-75
2021/03/10 08:35:11;;;;;;;58.20;39.80;;;;;;;5.69;71.30;96962.97;5001703;28;20073;-75
2021/03/10 08:37:39;;;;;;;46.22;33.88;;;;;;;5.96;70.07;96965.94;5004366;28;20045;-74
2021/03/10 08:40:07;;;;;;;65.10;40.72;;;;;;;4.95;75.76;96970.88;4988908;28;20041;-75
2021/03/10 08:42:33;;;;;;;57.58;38.05;;;;;;;4.37;76.20;96973.03;5001098;28;20052;-73
2021/03/10 08:45:00;;;;;;;53.28;36.03;;;;;;;5.22;74.48;96972.13;4983433;28;20042;-74
2021/03/10 08:47:27;;;;;;;60.45;40.00;;;;;;;5.46;73.03;96972.69;4988172;28;20141;-74
2021/03/10 08:49:56;;;;;;;52.20;35.22;;;;;;;5.59;72.93;96980.22;4990934;28;20074;-75
2021/03/10 08:52:23;;;;;;;75.05;46.55;;;;;;;5.89;70.46;96976.75;4984195;28;20829;-74
2021/03/10 08:55:00;;;;;;;46.60;32.75;;;;;;;5.77;72.57;96974.41;4983506;28;20045;-74
2021/03/10 08:57:35;;;;;;;43.85;31.80;;;;;;;5.88;70.21;96974.31;5004416;28;20046;-75
2021/03/10 09:00:14;;;;;;;42.42;30.75;;;;;;;6.75;67.92;96959.88;4982269;28;20423;-74
2021/03/10 09:02:45;;;;;;;47.13;32.38;;;;;;;6.35;67.81;96968.56;4999143;28;20806;-73
2021/03/10 09:05:14;;;;;;;39.40;29.35;;;;;;;6.82;67.02;96964.38;4983707;28;20049;-74
2021/03/10 09:07:47;;;;;;;48.13;34.70;;;;;;;7.19;65.49;96957.63;4977907;28;20042;-75
2021/03/10 09:10:18;;;;;;;48.70;32.15;;;;;;;7.16;66.75;96957.94;5003543;28;20046;-75
2021/03/10 09:12:52;;;;;;;47.40;32.63;;;;;;;5.90;69.71;96968.09;4982708;28;20131;-74
2021/03/10 09:15:24;;;;;;;48.40;33.10;;;;;;;5.07;73.78;96966.47;4986669;28;20128;-74
2021/03/10 09:18:04;;;;;;;50.60;33.13;;;;;;;4.74;73.56;96952.00;4982373;28;20046;-74
2021/03/10 09:20:38;;;;;;;66.18;39.53;;;;;;;4.43;75.73;96967.38;4990951;28;20149;-75
2021/03/10 09:23:09;;;;;;;51.58;34.08;;;;;;;4.04;76.19;96960.13;4995868;28;20052;-75
2021/03/10 09:25:41;;;;;;;56.90;37.47;;;;;;;4.20;74.69;96975.19;5004267;28;20049;-75
2021/03/10 09:28:19;;;;;;;59.42;36.33;;;;;;;4.90;73.47;96962.72;4993147;28;20033;-74
2021/03/10 09:30:54;;;;;;;55.58;35.05;;;;;;;5.07;73.39;96966.47;4991835;28;20054;-75
2021/03/10 09:33:27;;;;;;;57.60;37.03;;;;;;;5.24;70.96;96965.09;4989090;28;20074;-75
2021/03/10 09:35:58;;;;;;;49.08;33.67;;;;;;;4.92;73.23;96984.03;4987426;28;20451;-74
2021/03/10 09:38:26;;;;;;;65.30;41.22;;;;;;;5.48;71.26;96960.44;4982700;28;20034;-75
2021/03/10 09:40:59;;;;;;;55.50;36.85;;;;;;;4.87;73.60;96973.28;4988539;28;20402;-74
2021/03/10 09:43:31;;;;;;;54.13;35.05;;;;;;;5.03;73.11;96978.00;4989929;28;20140;-74
2021/03/10 09:46:03;;;;;;;53.25;34.60;;;;;;;6.20;69.19;96971.56;5005411;28;20045;-75
2021/03/10 09:48:31;;;;;;;50.53;35.33;;;;;;;5.28;72.18;96964.69;4983718;28;20057;-75
2021/03/10 09:51:02;;;;;;;47.10;31.30;;;;;;;5.58;70.80;96975.97;4977630;28;20056;-74
2021/03/10 09:53:30;;;;;;;47.78;33.40;;;;;;;6.13;69.83;96978.22;4991767;28;20057;-74
2021/03/10 09:56:06;;;;;;;46.30;31.48;;;;;;;5.51;70.54;96977.44;4987001;28;20069;-75
2021/03/10 09:58:51;;;;;;;50.05;33.17;;;;;;;5.51;71.54;96988.59;5003005;28;20061;-75
2021/03/10 10:01:26;;;;;;;46.15;32.05;;;;;;;4.97;72.89;96992.22;4988848;28;20053;-74
2021/03/10 10:03:53;;;;;;;58.67;38.33;;;;;;;4.01;76.15;96990.44;5001510;28;20470;-75
2021/03/10 10:06:24;;;;;;;49.92;33.45;;;;;;;3.71;76.64;96998.81;4988423;28;20104;-75
2021/03/10 10:08:52;;;;;;;50.80;33.78;;;;;;;3.72;76.80;96990.94;4968810;28;20077;-75
2021/03/10 10:11:22;;;;;;;50.40;34.25;;;;;;;4.07;77.47;96998.50;4987748;28;20549;-75
2021/03/10 10:13:50;;;;;;;61.78;38.70;;;;;;;4.37;76.32;96998.81;4999290;28;20046;-75
2021/03/10 10:16:18;;;;;;;60.60;37.70;;;;;;;4.94;73.13;96987.31;4968561;28;20470;-75
2021/03/10 10:18:45;;;;;;;57.97;36.47;;;;;;;5.16;71.29;96990.72;4988057;28;20038;-74
2021/03/10 10:21:13;;;;;;;54.92;35.65;;;;;;;5.37;71.64;96981.16;4999680;28;20049;-75
2021/03/10 10:23:42;;;;;;;57.28;36.67;;;;;;;5.90;71.60;96975.00;4979891;28;20042;-74
2021/03/10 10:26:13;;;;;;;52.90;35.33;;;;;;;6.59;69.60;96989.72;4980774;28;20050;-75
2021/03/10 10:28:42;;;;;;;51.33;34.47;;;;;;;7.25;66.69;96983.78;4982598;28;20053;-75
2021/03/10 10:31:30;;;;;;;43.67;30.77;;;;;;;8.92;61.33;96979.34;4981683;28;20791;-75
2021/03/10 10:33:58;;;;;;;48.58;34.78;;;;;;;11.82;53.36;96980.47;4998367;28;20048;-75
2021/03/10 10:36:27;;;;;;;37.95;29.40;;;;;;;15.00;43.71;96973.34;4997993;28;20046;-75
2021/03/10 10:39:06;;;;;;;39.25;30.40;;;;;;;15.53;45.87;96976.38;4979538;28;20042;-75
2021/03/10 10:41:32;;;;;;;38.65;30.92;;;;;;;10.48;55.52;96973.13;4983159;28;20147;-76
2021/03/10 10:43:58;;;;;;;37.40;28.52;;;;;;;6.98;63.82;96981.91;5001292;28;20053;-75
2021/03/10 10:46:25;;;;;;;35.87;27.43;;;;;;;7.24;63.42;96979.56;4981453;28;20489;-75
2021/03/10 10:48:54;;;;;;;50.55;34.35;;;;;;;7.54;65.39;96981.13;4968404;28;20298;-75
2021/03/10 10:51:30;;;;;;;40.05;29.13;;;;;;;7.55;62.68;96977.53;5001421;28;20073;-75
2021/03/10 10:54:09;;;;;;;34.85;26.42;;;;;;;7.74;59.92;96981.03;5005141;28;20050;-76
2021/03/10 10:56:38;;;;;;;46.78;31.50;;;;;;;7.63;60.64;96973.44;4973454;28;20116;-75
2021/03/10 10:59:19;;;;;;;37.35;26.75;;;;;;;7.45;59.53;96969.03;4987722;28;20141;-76
2021/03/10 11:01:47;;;;;;;43.20;30.83;;;;;;;9.19;57.78;96975.00;4981619;28;20085;-76
2021/03/10 11:04:13;;;;;;;39.85;29.58;;;;;;;9.50;56.05;96978.78;4987642;28;20058;-76
2021/03/10 11:06:39;;;;;;;42.55;28.98;;;;;;;10.11;55.83;96974.28;4988689;28;20050;-78
2021/03/10 11:09:06;;;;;;;56.95;39.40;;;;;;;11.03;51.87;96976.91;4988438;28;20042;-78
2021/03/10 11:11:33;;;;;;;41.63;29.40;;;;;;;10.89;52.99;96980.97;4991556;28;20065;-78
2021/03/10 11:14:02;;;;;;;51.28;32.25;;;;;;;10.45;51.67;96972.63;4991973;28;20084;-78
2021/03/10 11:16:49;;;;;;;52.00;35.65;;;;;;;10.15;52.42;96975.59;4987434;28;20053;-75
2021/03/10 11:19:20;;;;;;;44.47;30.50;;;;;;;11.03;53.03;96971.69;4987816;28;20072;-74
2021/03/10 11:21:50;;;;;;;32.85;23.98;;;;;;;13.21;46.78;96980.63;4990706;28;20046;-75
2021/03/10 11:24:18;;;;;;;32.42;25.95;;;;;;;15.96;40.30;96964.91;5002875;28;20096;-77
2021/03/10 11:26:45;;;;;;;52.30;35.60;;;;;;;14.59;41.57;96958.28;4992676;28;20470;-75
2021/03/10 11:29:17;;;;;;;36.55;27.90;;;;;;;14.25;43.02;96964.94;4986142;28;20038;-76
2021/03/10 11:31:44;;;;;;;38.25;27.63;;;;;;;13.54;45.31;96968.06;4991707;28;20477;-76
2021/03/10 11:34:12;;;;;;;44.53;32.17;;;;;;;19.20;34.04;96958.50;4972555;28;20524;-75
2021/03/10 11:36:40;;;;;;;25.98;20.85;;;;;;;18.84;31.77;96957.38;4975544;28;20058;-75